createdAt,value
2017-05-04T03:42:46.065Z,5
2017-05-04T03:43:30.105Z,5
2017-05-04T03:44:10.160Z,5
2017-05-04T03:44:50.651Z,5
2017-05-04T03:45:31.119Z,5
2017-05-04T03:46:11.603Z,5
2017-05-04T03:46:52.090Z,5
2017-05-04T03:47:32.586Z,5
2017-05-04T03:48:13.090Z,5
2017-05-04T03:48:53.583Z,10
2017-05-04T03:49:34.049Z,10
2017-05-04T03:50:14.547Z,10
2017-05-04T03:50:55.037Z,10
2017-05-04T03:51:35.555Z,10
2017-05-04T03:52:16.018Z,10
2017-05-04T03:52:56.525Z,10
2017-05-04T03:53:36.991Z,10
2017-05-04T03:54:17.451Z,10
2017-05-04T03:54:57.984Z,10
2017-05-04T03:55:38.470Z,10
2017-05-04T03:56:18.933Z,10
2017-05-04T03:56:59.414Z,10
2017-05-04T03:57:39.892Z,15
2017-05-04T03:58:20.441Z,15
2017-05-04T03:59:00.932Z,15
2017-05-04T03:59:41.435Z,15
2017-05-04T04:00:21.938Z,15
2017-05-04T04:01:02.460Z,15
2017-05-04T04:01:42.907Z,15
2017-05-04T04:02:23.407Z,15
2017-05-04T04:03:03.881Z,15
2017-05-04T04:03:44.418Z,15
2017-05-04T04:04:24.900Z,20
2017-05-04T04:05:05.361Z,20
2017-05-04T04:05:45.838Z,20
2017-05-04T04:06:26.307Z,20
2017-05-04T04:07:06.816Z,20
2017-05-04T04:07:47.312Z,20
2017-05-04T04:08:27.830Z,20
2017-05-04T04:09:08.308Z,20
2017-05-04T04:09:48.803Z,20
2017-05-04T04:10:29.290Z,20
2017-05-04T04:11:09.772Z,20
2017-05-04T04:11:50.234Z,25
2017-05-04T04:12:30.726Z,25
2017-05-04T04:13:11.206Z,25
2017-05-04T04:13:51.697Z,25
2017-05-04T04:14:32.204Z,25
2017-05-04T04:15:12.704Z,25
2017-05-04T04:15:53.177Z,30
2017-05-04T04:16:33.710Z,30
2017-05-04T04:17:14.182Z,30
2017-05-04T04:17:54.714Z,30
2017-05-04T04:18:35.198Z,30
2017-05-04T04:19:15.745Z,30
2017-05-04T04:19:56.252Z,35
2017-05-04T04:20:36.822Z,35
2017-05-04T04:21:17.447Z,35
2017-05-04T04:21:57.908Z,35
2017-05-04T04:22:38.438Z,35
2017-05-04T04:23:19.084Z,40
2017-05-04T04:24:00.184Z,40
2017-05-04T04:24:41.152Z,40
2017-05-04T04:25:21.552Z,40
2017-05-04T04:26:02.058Z,40
2017-05-04T04:26:42.456Z,40
2017-05-04T04:27:23.198Z,40
2017-05-04T04:28:03.760Z,45
2017-05-04T04:28:44.315Z,45
2017-05-04T04:29:24.918Z,45
2017-05-04T04:30:05.484Z,45
2017-05-04T04:30:45.995Z,45
2017-05-04T04:31:26.532Z,50
2017-05-04T04:32:06.991Z,50
2017-05-04T04:32:47.501Z,50
2017-05-04T04:33:27.998Z,50
2017-05-04T04:34:08.619Z,50
2017-05-04T04:34:49.175Z,50
2017-05-04T04:35:29.852Z,55
2017-05-04T04:36:10.205Z,55
2017-05-04T04:36:50.668Z,55
2017-05-04T04:37:31.225Z,55
2017-05-04T04:38:11.818Z,55
2017-05-04T04:38:52.473Z,60
2017-05-04T04:39:32.997Z,60
2017-05-04T04:40:13.597Z,60
2017-05-04T04:40:54.074Z,60
2017-05-04T04:41:34.605Z,60
2017-05-04T04:42:14.997Z,60
2017-05-04T04:42:55.466Z,65
2017-05-04T04:43:35.915Z,65
2017-05-04T04:44:16.447Z,65
2017-05-04T04:44:56.968Z,65
2017-05-04T04:45:37.465Z,65
2017-05-04T04:46:18.709Z,65
2017-05-04T04:46:59.227Z,65
2017-05-04T04:47:39.917Z,65
2017-05-04T04:48:20.582Z,65
2017-05-04T04:49:01.130Z,65
2017-05-04T04:49:42.025Z,65
2017-05-04T04:50:22.230Z,65
2017-05-04T04:51:02.898Z,65
2017-05-04T04:51:43.823Z,65
2017-05-04T04:52:24.226Z,70
2017-05-04T04:53:04.736Z,70
2017-05-04T04:53:45.298Z,70
2017-05-04T04:54:25.790Z,70
2017-05-04T04:55:06.270Z,70
2017-05-04T04:55:46.776Z,70
2017-05-04T04:56:27.296Z,70
2017-05-04T04:57:07.861Z,70
2017-05-04T04:57:48.505Z,65
2017-05-04T04:58:28.889Z,65
2017-05-04T04:59:09.503Z,65
2017-05-04T04:59:49.892Z,65
2017-05-04T05:00:30.428Z,65
2017-05-04T05:01:10.988Z,70
2017-05-04T05:01:51.390Z,70
2017-05-04T05:02:31.945Z,70
2017-05-04T05:03:12.407Z,80
2017-05-04T05:03:52.883Z,75
2017-05-04T05:04:33.310Z,80
2017-05-04T05:05:13.845Z,80
2017-05-04T05:05:54.302Z,85
2017-05-04T05:06:34.795Z,85
2017-05-04T05:07:15.474Z,85
2017-05-04T05:07:56.041Z,85
2017-05-04T05:08:36.481Z,90
2017-05-04T05:09:16.879Z,90
2017-05-04T05:09:57.564Z,90
2017-05-04T05:10:38.033Z,90
2017-05-04T05:11:18.532Z,90
2017-05-04T05:11:58.983Z,90
2017-05-04T05:12:39.518Z,90
2017-05-04T05:13:19.964Z,95
2017-05-04T05:14:00.408Z,95
2017-05-04T05:14:40.969Z,100
2017-05-04T05:15:21.481Z,105
2017-05-04T05:16:02.898Z,105
2017-05-04T05:16:43.308Z,110
2017-05-04T05:17:23.833Z,115
2017-05-04T05:18:04.301Z,115
2017-05-04T05:18:44.778Z,115
2017-05-04T05:19:25.300Z,120
2017-05-04T05:20:05.781Z,120
2017-05-04T05:20:46.284Z,120
2017-05-04T05:21:26.858Z,120
2017-05-04T05:22:07.703Z,125
2017-05-04T05:22:48.501Z,125
2017-05-04T05:23:29.082Z,125
2017-05-04T05:24:09.505Z,125
2017-05-04T05:24:49.948Z,125
2017-05-04T05:25:30.578Z,125
2017-05-04T05:26:11.084Z,120
2017-05-04T05:26:51.570Z,120
2017-05-04T05:27:32.001Z,120
2017-05-04T05:28:12.444Z,120
2017-05-04T05:28:52.910Z,120
2017-05-04T05:29:33.567Z,120
2017-05-04T05:30:13.991Z,120
2017-05-04T05:30:54.555Z,120
2017-05-04T05:31:35.026Z,120
2017-05-04T05:32:15.438Z,120
2017-05-04T05:32:55.889Z,120
2017-05-04T05:33:36.366Z,115
2017-05-04T05:34:16.914Z,115
2017-05-04T05:34:57.432Z,115
2017-05-04T05:35:37.987Z,115
2017-05-04T05:36:18.402Z,115
2017-05-04T05:36:58.940Z,120
2017-05-04T05:37:39.843Z,120
2017-05-04T05:38:20.274Z,125
2017-05-04T05:39:00.819Z,125
2017-05-04T05:39:41.219Z,125
2017-05-04T05:40:21.855Z,125
2017-05-04T05:41:02.394Z,130
2017-05-04T05:41:42.835Z,130
2017-05-04T05:42:23.272Z,135
2017-05-04T05:43:03.903Z,135
2017-05-04T05:43:44.420Z,140
2017-05-04T05:44:25.042Z,145
2017-05-04T05:45:05.572Z,145
2017-05-04T05:45:46.177Z,150
2017-05-04T05:46:26.721Z,155
2017-05-04T05:47:07.186Z,160
2017-05-04T05:47:47.682Z,160
2017-05-04T05:48:28.124Z,165
2017-05-04T05:49:08.614Z,170
2017-05-04T05:49:49.099Z,170
2017-05-04T05:50:29.661Z,175
2017-05-04T05:51:10.115Z,175
2017-05-04T05:51:50.537Z,180
2017-05-04T05:52:31.011Z,180
2017-05-04T05:53:11.548Z,180
2017-05-04T05:53:52.045Z,180
2017-05-04T05:54:32.569Z,180
2017-05-04T05:55:13.084Z,180
2017-05-04T05:55:53.780Z,180
2017-05-04T05:56:34.262Z,180
2017-05-04T05:57:14.786Z,180
2017-05-04T05:57:55.249Z,180
2017-05-04T05:58:35.746Z,180
2017-05-04T05:59:16.280Z,180
2017-05-04T05:59:56.803Z,180
2017-05-04T06:00:37.280Z,180
2017-05-04T06:01:17.792Z,180
2017-05-04T06:01:58.244Z,180
2017-05-04T06:02:38.821Z,180
2017-05-04T06:03:19.272Z,180
2017-05-04T06:03:59.780Z,180
2017-05-04T06:04:40.259Z,180
2017-05-04T06:05:20.730Z,185
2017-05-04T06:06:01.234Z,185
2017-05-04T06:06:42.083Z,185
2017-05-04T06:07:22.602Z,185
2017-05-04T06:08:03.090Z,185
2017-05-04T06:08:43.618Z,185
2017-05-04T06:09:24.080Z,175
2017-05-04T06:10:04.595Z,175
2017-05-04T06:10:45.028Z,175
2017-05-04T06:11:25.495Z,175
2017-05-04T06:12:05.983Z,175
2017-05-04T06:12:46.460Z,175
2017-05-04T06:13:26.946Z,175
2017-05-04T06:14:07.396Z,170
2017-05-04T06:14:47.932Z,170
2017-05-04T06:15:28.424Z,170
2017-05-04T06:16:08.947Z,170
2017-05-04T06:16:49.493Z,170
2017-05-04T06:17:29.980Z,170
2017-05-04T06:18:10.454Z,170
2017-05-04T06:18:50.952Z,170
2017-05-04T06:19:31.418Z,170
2017-05-04T06:20:11.987Z,170
2017-05-04T06:20:52.475Z,170
2017-05-04T06:21:33.003Z,175
2017-05-04T06:22:13.458Z,175
2017-05-04T06:22:53.917Z,175
2017-05-04T06:23:34.386Z,180
2017-05-04T06:24:14.930Z,180
2017-05-04T06:24:55.427Z,180
2017-05-04T06:25:36.002Z,185
2017-05-04T06:26:16.522Z,185
2017-05-04T06:26:57.007Z,190
2017-05-04T06:27:37.496Z,190
2017-05-04T06:28:18.062Z,195
2017-05-04T06:28:58.519Z,195
2017-05-04T06:29:38.976Z,200
2017-05-04T06:30:19.510Z,205
2017-05-04T06:30:59.966Z,205
2017-05-04T06:31:40.464Z,210
2017-05-04T06:32:20.927Z,210
2017-05-04T06:33:01.462Z,215
2017-05-04T06:33:41.986Z,215
2017-05-04T06:34:22.474Z,215
2017-05-04T06:35:02.983Z,215
2017-05-04T06:35:43.464Z,210
2017-05-04T06:36:23.980Z,210
2017-05-04T06:37:04.476Z,210
2017-05-04T06:37:44.988Z,210
2017-05-04T06:38:25.469Z,210
2017-05-04T06:39:05.913Z,210
2017-05-04T06:39:46.471Z,210
2017-05-04T06:40:27.001Z,210
2017-05-04T06:41:07.489Z,210
2017-05-04T06:41:47.945Z,210
2017-05-04T06:42:28.447Z,215
2017-05-04T06:43:08.952Z,215
2017-05-04T06:43:49.450Z,215
2017-05-04T06:44:29.916Z,220
2017-05-04T06:45:10.410Z,220
2017-05-04T06:45:50.944Z,220
2017-05-04T06:46:31.373Z,220
2017-05-04T06:47:11.862Z,220
2017-05-04T06:47:52.343Z,220
2017-05-04T06:48:32.874Z,225
2017-05-04T06:49:13.346Z,225
2017-05-04T06:49:53.805Z,225
2017-05-04T06:50:34.297Z,225
2017-05-04T06:51:14.799Z,225
2017-05-04T06:51:55.240Z,225
2017-05-04T06:52:35.750Z,225
2017-05-04T06:53:16.195Z,225
2017-05-04T06:53:56.723Z,225
2017-05-04T06:54:37.197Z,230
2017-05-04T06:55:17.727Z,230
2017-05-04T06:55:58.190Z,235
2017-05-04T06:56:38.700Z,235
2017-05-04T06:57:19.177Z,235
2017-05-04T06:57:59.661Z,240
2017-05-04T06:58:40.179Z,245
2017-05-04T06:59:20.647Z,245
2017-05-04T07:00:02.158Z,250
2017-05-04T07:00:42.646Z,250
2017-05-04T07:01:23.097Z,255
2017-05-04T07:02:03.515Z,255
2017-05-04T07:02:44.204Z,255
2017-05-04T07:03:24.680Z,260
2017-05-04T07:04:05.338Z,260
2017-05-04T07:04:45.753Z,260
2017-05-04T07:05:26.253Z,260
2017-05-04T07:06:08.393Z,260
2017-05-04T07:06:48.884Z,265
2017-05-04T07:07:29.363Z,270
2017-05-04T07:08:09.876Z,275
2017-05-04T07:08:50.353Z,280
2017-05-04T07:09:30.801Z,285
2017-05-04T07:10:11.394Z,295
2017-05-04T07:10:51.772Z,300
2017-05-04T07:11:32.277Z,305
2017-05-04T07:12:12.800Z,310
2017-05-04T07:12:53.264Z,315
2017-05-04T07:13:34.178Z,320
2017-05-04T07:14:14.667Z,325
2017-05-04T07:14:55.174Z,325
2017-05-04T07:15:35.654Z,325
2017-05-04T07:16:16.141Z,330
2017-05-04T07:16:57.510Z,330
2017-05-04T07:17:37.981Z,330
2017-05-04T07:18:18.558Z,330
2017-05-04T07:18:59.263Z,330
2017-05-04T07:19:39.735Z,330
2017-05-04T07:20:20.256Z,330
2017-05-04T07:21:00.767Z,330
2017-05-04T07:21:41.206Z,330
2017-05-04T07:22:21.739Z,335
2017-05-04T07:23:02.216Z,335
2017-05-04T07:23:42.771Z,340
2017-05-04T07:24:23.226Z,345
2017-05-04T07:25:03.781Z,340
2017-05-04T07:25:44.432Z,345
2017-05-04T07:26:24.853Z,350
2017-05-04T07:27:05.377Z,350
2017-05-04T07:27:45.949Z,355
2017-05-04T07:28:26.432Z,355
2017-05-04T07:29:06.954Z,355
2017-05-04T07:29:47.757Z,355
2017-05-04T07:30:28.207Z,355
2017-05-04T07:31:08.675Z,355
2017-05-04T07:31:49.198Z,355
2017-05-04T07:32:29.694Z,355
2017-05-04T07:33:10.197Z,355
2017-05-04T07:33:50.678Z,360
2017-05-04T07:34:31.136Z,360
2017-05-04T07:35:11.643Z,360
2017-05-04T07:35:52.155Z,360
2017-05-04T07:36:32.791Z,365
2017-05-04T07:37:13.231Z,365
2017-05-04T07:37:53.781Z,370
2017-05-04T07:38:34.256Z,375
2017-05-04T07:39:14.806Z,375
2017-05-04T07:39:55.372Z,380
2017-05-04T07:40:35.866Z,385
2017-05-04T07:41:16.414Z,390
2017-05-04T07:41:56.989Z,395
2017-05-04T07:42:37.518Z,400
2017-05-04T07:43:18.133Z,400
2017-05-04T07:43:58.623Z,405
2017-05-04T07:44:39.111Z,415
2017-05-04T07:45:19.680Z,410
2017-05-04T07:46:00.183Z,410
2017-05-04T07:46:40.664Z,415
2017-05-04T07:47:21.140Z,415
2017-05-04T07:48:03.339Z,415
2017-05-04T07:48:43.829Z,415
2017-05-04T07:49:24.352Z,415
2017-05-04T07:50:05.854Z,415
2017-05-04T07:50:47.247Z,415
2017-05-04T07:51:28.521Z,415
2017-05-04T07:52:08.958Z,415
2017-05-04T07:52:49.497Z,410
2017-05-04T07:53:30.203Z,410
2017-05-04T07:54:10.795Z,405
2017-05-04T07:54:51.455Z,400
2017-05-04T07:55:31.983Z,395
2017-05-04T07:56:12.508Z,395
2017-05-04T07:56:53.175Z,390
2017-05-04T07:57:33.760Z,390
2017-05-04T07:58:14.225Z,390
2017-05-04T07:58:54.843Z,385
2017-05-04T07:59:35.348Z,385
2017-05-04T08:00:15.831Z,385
2017-05-04T08:00:56.420Z,385
2017-05-04T08:01:36.971Z,385
2017-05-04T08:02:17.440Z,385
2017-05-04T08:02:57.937Z,385
2017-05-04T08:03:38.446Z,390
2017-05-04T08:04:19.023Z,390
2017-05-04T08:04:59.492Z,390
2017-05-04T08:06:23.138Z,395
2017-05-04T08:07:04.513Z,400
2017-05-04T08:07:44.989Z,400
2017-05-04T08:08:25.501Z,400
2017-05-04T08:09:06.586Z,400
2017-05-04T08:11:59.077Z,390
2017-05-04T08:12:50.812Z,385
2017-05-04T08:13:39.654Z,385
2017-05-04T08:14:32.517Z,380
2017-05-04T08:17:17.554Z,395
2017-05-04T08:18:10.253Z,400
2017-05-04T08:20:43.243Z,415
2017-05-04T08:21:37.554Z,415
2017-05-04T08:22:27.848Z,420
2017-05-04T08:23:18.734Z,420
2017-05-04T08:24:07.775Z,425
2017-05-04T08:24:52.113Z,430
2017-05-04T08:25:40.477Z,435
2017-05-04T08:26:28.351Z,445
2017-05-04T08:27:08.652Z,450
2017-05-04T08:27:49.423Z,455
2017-05-04T08:28:29.903Z,465
2017-05-04T08:29:10.399Z,470
2017-05-04T08:29:50.931Z,480
2017-05-04T08:30:31.436Z,490
2017-05-04T08:31:12.118Z,500
2017-05-04T08:31:52.664Z,505
2017-05-04T08:32:34.714Z,510
2017-05-04T08:33:15.944Z,515
2017-05-04T08:33:56.616Z,525
2017-05-04T08:34:37.422Z,520
2017-05-04T08:35:20.792Z,520
2017-05-04T08:36:01.366Z,525
2017-05-04T08:36:41.877Z,525
2017-05-04T08:37:22.377Z,525
2017-05-04T08:38:04.285Z,525
2017-05-04T08:38:44.824Z,520
2017-05-04T08:39:25.321Z,515
2017-05-04T08:40:05.821Z,510
2017-05-04T08:40:46.295Z,510
2017-05-04T08:41:26.808Z,500
2017-05-04T08:42:07.328Z,495
2017-05-04T08:42:47.985Z,495
2017-05-04T08:43:28.510Z,485
2017-05-04T08:44:08.979Z,505
2017-05-04T08:44:49.483Z,500
2017-05-04T08:45:31.131Z,500
2017-05-04T08:46:11.646Z,490
2017-05-04T08:46:52.121Z,485
2017-05-04T08:47:32.629Z,485
2017-05-04T08:48:13.275Z,485
2017-05-04T08:48:54.073Z,490
2017-05-04T08:49:35.181Z,490
2017-05-04T08:50:15.834Z,495
2017-05-04T08:50:56.379Z,500
2017-05-04T08:51:36.871Z,500
2017-05-04T08:52:17.322Z,500
2017-05-04T08:52:57.941Z,500
2017-05-04T08:53:38.431Z,500
2017-05-04T08:54:18.901Z,500
2017-05-04T08:54:59.480Z,500
2017-05-04T08:55:39.952Z,495
2017-05-04T08:56:20.493Z,495
2017-05-04T08:57:00.951Z,490
2017-05-04T08:57:42.427Z,490
2017-05-04T08:58:23.665Z,495
2017-05-04T09:00:53.915Z,510
2017-05-04T09:02:28.964Z,530
2017-05-04T09:03:09.073Z,545
2017-05-04T09:03:49.561Z,550
2017-05-04T09:04:30.048Z,555
2017-05-04T09:05:10.511Z,555
2017-05-04T09:05:51.006Z,555
2017-05-04T09:06:31.585Z,550
2017-05-04T09:07:12.103Z,545
2017-05-04T09:07:52.630Z,545
2017-05-04T09:08:33.091Z,545
2017-05-04T09:09:15.211Z,540
2017-05-04T09:10:06.157Z,540
2017-05-04T09:10:54.781Z,540
2017-05-04T09:11:41.831Z,540
2017-05-04T09:12:26.866Z,540
2017-05-04T09:13:11.802Z,540
2017-05-04T09:13:59.594Z,540
2017-05-04T09:14:40.810Z,540
2017-05-04T09:15:21.306Z,540
2017-05-04T09:16:01.798Z,545
2017-05-04T09:16:42.287Z,545
2017-05-04T09:17:22.816Z,545
2017-05-04T09:18:03.317Z,545
2017-05-04T09:18:43.761Z,550
2017-05-04T09:21:06.615Z,560
2017-05-04T09:21:55.713Z,565
2017-05-04T09:22:44.056Z,565
2017-05-04T09:23:33.049Z,575
2017-05-04T09:24:21.254Z,575
2017-05-04T09:25:10.720Z,585
2017-05-04T09:26:03.037Z,585
2017-05-04T09:26:57.873Z,585
2017-05-04T09:27:51.823Z,595
2017-05-04T09:28:41.630Z,585
2017-05-04T09:29:30.915Z,580
2017-05-04T09:30:13.793Z,575
2017-05-04T09:30:54.329Z,575
2017-05-04T09:31:34.790Z,570
2017-05-04T09:32:15.352Z,565
2017-05-04T09:32:55.990Z,560
2017-05-04T09:33:36.720Z,555
2017-05-04T09:34:17.259Z,555
2017-05-04T09:34:57.741Z,560
2017-05-04T09:35:42.260Z,560
2017-05-04T09:36:30.486Z,560
2017-05-04T09:37:20.520Z,555
2017-05-04T09:38:10.063Z,560
2017-05-04T09:38:59.998Z,565
2017-05-04T09:39:50.426Z,565
2017-05-04T09:40:31.833Z,560
2017-05-04T09:41:12.307Z,555
2017-05-04T09:41:52.804Z,555
2017-05-04T09:42:33.353Z,550
2017-05-04T09:43:13.793Z,545
2017-05-04T09:43:54.342Z,540
2017-05-04T09:44:34.759Z,530
2017-05-04T09:45:15.267Z,525
2017-05-04T09:45:55.737Z,525
2017-05-04T09:46:36.228Z,525
2017-05-04T09:47:16.869Z,525
2017-05-04T09:47:57.358Z,525
2017-05-04T09:48:37.951Z,525
2017-05-04T09:49:18.379Z,520
2017-05-04T09:49:58.940Z,520
2017-05-04T09:50:39.476Z,520
2017-05-04T09:51:19.984Z,515
2017-05-04T09:52:00.417Z,510
2017-05-04T09:52:41.576Z,510
2017-05-04T09:53:22.035Z,505
2017-05-04T09:54:02.527Z,505
2017-05-04T09:54:43.011Z,510
2017-05-04T09:55:26.029Z,505
2017-05-04T09:56:06.466Z,505
2017-05-04T09:56:47.029Z,505
2017-05-04T09:57:27.648Z,505
2017-05-04T09:58:09.474Z,510
2017-05-04T09:58:53.359Z,520
2017-05-04T09:59:33.844Z,530
2017-05-04T10:00:14.325Z,540
2017-05-04T10:00:56.068Z,555
2017-05-04T10:01:36.366Z,570
2017-05-04T10:02:16.893Z,585
2017-05-04T10:02:58.194Z,600
2017-05-04T10:03:38.706Z,620
2017-05-04T10:04:19.159Z,635
2017-05-04T10:04:59.838Z,655
2017-05-04T10:05:40.239Z,665
2017-05-04T10:06:20.697Z,675
2017-05-04T10:07:01.537Z,675
2017-05-04T10:07:42.034Z,675
2017-05-04T10:08:22.560Z,675
2017-05-04T10:09:04.466Z,670
2017-05-04T10:09:44.873Z,675
2017-05-04T10:10:25.557Z,665
2017-05-04T10:11:06.090Z,665
2017-05-04T10:11:46.513Z,645
2017-05-04T10:12:27.116Z,630
2017-05-04T10:13:08.183Z,615
2017-05-04T10:13:48.667Z,600
2017-05-04T10:14:29.337Z,580
2017-05-04T10:15:11.487Z,565
2017-05-04T10:15:53.940Z,550
2017-05-04T10:16:35.340Z,540
2017-05-04T10:17:15.886Z,535
2017-05-04T10:17:56.552Z,530
2017-05-04T10:18:37.199Z,525
2017-05-04T10:19:17.754Z,520
2017-05-04T10:19:58.410Z,515
2017-05-04T10:20:38.981Z,505
2017-05-04T10:21:19.518Z,505
2017-05-04T10:22:00.152Z,510
2017-05-04T10:22:40.856Z,515
2017-05-04T10:23:21.352Z,530
2017-05-04T10:24:01.801Z,545
2017-05-04T10:24:42.314Z,565
2017-05-04T10:25:22.792Z,580
2017-05-04T10:26:03.341Z,585
2017-05-04T10:26:43.809Z,595
2017-05-04T10:27:24.340Z,600
2017-05-04T10:28:04.934Z,615
2017-05-04T10:28:45.502Z,625
2017-05-04T10:29:26.724Z,635
2017-05-04T10:30:07.505Z,640
2017-05-04T10:30:48.048Z,655
2017-05-04T10:31:29.392Z,665
2017-05-04T10:32:09.856Z,675
2017-05-04T10:32:50.283Z,680
2017-05-04T10:33:30.769Z,675
2017-05-04T10:34:11.270Z,670
2017-05-04T10:34:51.799Z,670
2017-05-04T10:35:32.265Z,665
2017-05-04T10:36:12.726Z,665
2017-05-04T10:36:53.265Z,670
2017-05-04T10:37:34.316Z,665
2017-05-04T10:38:14.804Z,665
2017-05-04T10:38:55.327Z,665
2017-05-04T10:39:35.844Z,670
2017-05-04T10:40:16.367Z,675
2017-05-04T10:40:56.899Z,680
2017-05-04T10:41:37.448Z,680
2017-05-04T10:42:17.900Z,680
2017-05-04T10:42:58.625Z,675
2017-05-04T10:43:39.198Z,680
2017-05-04T10:44:19.721Z,680
2017-05-04T10:45:00.225Z,675
2017-05-04T10:45:40.817Z,665
2017-05-04T10:46:21.413Z,665
2017-05-04T10:47:02.101Z,665
2017-05-04T10:47:42.612Z,660
2017-05-04T10:48:23.392Z,660
2017-05-04T10:49:03.669Z,660
2017-05-04T10:49:44.248Z,670
2017-05-04T10:50:24.916Z,665
2017-05-04T10:51:05.381Z,665
2017-05-04T10:51:45.965Z,665
2017-05-04T10:52:26.818Z,670
2017-05-04T10:53:07.263Z,670
2017-05-04T10:53:48.003Z,680
2017-05-04T10:54:28.533Z,680
2017-05-04T10:55:09.020Z,680
2017-05-04T10:55:49.626Z,685
2017-05-04T10:56:30.134Z,685
2017-05-04T10:57:10.724Z,685
2017-05-04T10:57:56.251Z,690
2017-05-04T10:58:41.060Z,695
2017-05-04T10:59:29.087Z,710
2017-05-04T11:00:13.320Z,725
2017-05-04T11:00:55.465Z,730
2017-05-04T11:01:35.968Z,735
2017-05-04T11:02:16.474Z,745
2017-05-04T11:02:57.067Z,760
2017-05-04T11:03:37.530Z,760
2017-05-04T11:04:18.081Z,760
2017-05-04T11:04:58.693Z,760
2017-05-04T11:05:39.181Z,760
2017-05-04T11:06:19.690Z,765
2017-05-04T11:07:00.161Z,775
2017-05-04T11:07:40.687Z,770
2017-05-04T11:08:21.165Z,760
2017-05-04T11:09:01.621Z,755
2017-05-04T11:09:42.313Z,750
2017-05-04T11:10:22.969Z,745
2017-05-04T11:11:03.729Z,745
2017-05-04T11:11:44.337Z,755
2017-05-04T11:12:24.827Z,760
2017-05-04T11:13:05.345Z,770
2017-05-04T11:13:46.021Z,770
2017-05-04T11:14:26.608Z,775
2017-05-04T11:15:07.140Z,785
2017-05-04T11:15:47.606Z,795
2017-05-04T11:16:28.110Z,775
2017-05-04T11:17:11.478Z,765
2017-05-04T11:17:53.391Z,765
2017-05-04T11:18:33.999Z,775
2017-05-04T11:19:14.460Z,785
2017-05-04T11:19:55.107Z,800
2017-05-04T11:20:35.669Z,810
2017-05-04T11:21:16.212Z,830
2017-05-04T11:21:56.741Z,845
2017-05-04T11:22:37.328Z,855
2017-05-04T11:23:17.832Z,870
2017-05-04T11:23:58.344Z,880
2017-05-04T11:24:38.867Z,885
2017-05-04T11:25:19.487Z,890
2017-05-04T11:26:00.005Z,885
2017-05-04T11:26:40.492Z,875
2017-05-04T11:27:21.040Z,855
2017-05-04T11:28:01.487Z,850
2017-05-04T11:28:41.975Z,855
2017-05-04T11:29:22.597Z,880
2017-05-04T11:30:03.106Z,900
2017-05-04T11:30:44.214Z,920
2017-05-04T11:31:24.754Z,930
2017-05-04T11:32:05.228Z,945
2017-05-04T11:32:47.251Z,950
2017-05-04T11:33:27.733Z,945
2017-05-04T11:34:08.528Z,945
2017-05-04T11:34:49.109Z,955
2017-05-04T11:35:29.573Z,940
2017-05-04T11:36:10.056Z,940
2017-05-04T11:36:51.445Z,930
2017-05-04T11:37:31.964Z,925
2017-05-04T11:38:12.445Z,930
2017-05-04T11:38:52.960Z,925
2017-05-04T11:39:33.507Z,935
2017-05-04T11:40:14.117Z,940
2017-05-04T11:40:54.569Z,940
2017-05-04T11:41:35.048Z,940
2017-05-04T11:42:15.555Z,945
2017-05-04T11:42:56.073Z,935
2017-05-04T11:43:36.564Z,940
2017-05-04T11:44:17.071Z,935
2017-05-04T11:44:57.629Z,925
2017-05-04T11:45:38.268Z,925
2017-05-04T11:46:18.692Z,925
2017-05-04T11:46:59.549Z,930
2017-05-04T11:47:40.139Z,940
2017-05-04T11:48:21.586Z,960
2017-05-04T11:49:02.360Z,980
2017-05-04T11:49:42.831Z,1000
2017-05-04T11:50:23.319Z,1010
2017-05-04T11:51:03.823Z,1010
2017-05-04T11:51:44.259Z,1020
2017-05-04T11:52:24.830Z,1055
2017-05-04T11:53:05.305Z,1080
2017-05-04T11:53:46.152Z,1090
2017-05-04T11:54:26.668Z,1090
2017-05-04T11:55:07.365Z,1100
2017-05-04T11:55:47.836Z,1100
2017-05-04T11:56:28.515Z,1165
2017-05-04T11:57:09.898Z,1270
2017-05-04T11:57:50.322Z,1380
2017-05-04T11:58:30.911Z,1185
2017-05-04T11:59:11.307Z,1115
2017-05-04T11:59:51.896Z,1150
2017-05-04T12:00:32.648Z,1075
2017-05-04T12:01:13.172Z,1075
2017-05-04T12:01:53.653Z,1045
2017-05-04T12:02:34.101Z,1080
2017-05-04T12:03:14.638Z,1060
2017-05-04T12:03:55.197Z,1085
2017-05-04T12:04:35.749Z,1125
2017-05-04T12:05:16.259Z,1125
2017-05-04T12:05:56.758Z,1100
2017-05-04T12:06:37.399Z,1030
2017-05-04T12:07:18.248Z,1065
2017-05-04T12:07:58.834Z,1030
2017-05-04T12:08:39.350Z,1060
2017-05-04T12:09:19.932Z,1095
2017-05-04T12:10:00.366Z,1150
2017-05-04T12:10:40.887Z,1130
2017-05-04T12:11:21.449Z,1170
2017-05-04T12:12:02.004Z,1145
2017-05-04T12:12:42.526Z,1130
2017-05-04T12:13:23.020Z,1100
2017-05-04T12:14:03.478Z,1075
2017-05-04T12:14:44.034Z,1080
2017-05-04T12:15:24.509Z,1075
2017-05-04T12:16:05.099Z,1100
2017-05-04T12:16:45.850Z,1110
2017-05-04T12:17:26.238Z,1130
2017-05-04T12:18:06.740Z,1185
2017-05-04T12:18:47.325Z,1250
2017-05-04T12:19:27.819Z,1315
2017-05-04T12:20:08.302Z,1455
2017-05-04T12:20:49.592Z,1635
2017-05-04T12:21:30.105Z,1760
2017-05-04T12:22:10.874Z,1855
2017-05-04T12:22:51.353Z,1365
2017-05-04T12:23:31.843Z,1315
2017-05-04T12:24:12.356Z,1120
2017-05-04T12:24:52.833Z,1060
2017-05-04T12:25:33.439Z,970
2017-05-04T12:26:13.987Z,930
2017-05-04T12:26:57.424Z,900
2017-05-04T12:27:43.398Z,845
2017-05-04T12:28:25.232Z,835
2017-05-04T12:29:05.817Z,805
2017-05-04T12:29:46.427Z,770
2017-05-04T12:30:26.948Z,740
2017-05-04T12:31:07.854Z,765
2017-05-04T12:31:48.409Z,760
2017-05-04T12:32:29.039Z,770
2017-05-04T12:33:09.524Z,740
2017-05-04T12:33:50.028Z,715
2017-05-04T12:34:30.528Z,720
2017-05-04T12:35:13.664Z,710
2017-05-04T12:35:56.117Z,695
2017-05-04T12:36:37.978Z,705
2017-05-04T12:37:18.465Z,715
2017-05-04T12:37:58.961Z,690
2017-05-04T12:38:40.258Z,675
2017-05-04T12:39:22.226Z,655
2017-05-04T12:40:03.704Z,620
2017-05-04T12:40:44.208Z,605
2017-05-04T12:41:24.667Z,580
2017-05-04T12:42:05.177Z,575
2017-05-04T12:42:45.667Z,575
2017-05-04T12:43:26.280Z,570
2017-05-04T12:44:06.776Z,570
2017-05-04T12:44:47.316Z,570
2017-05-04T12:45:29.225Z,570
2017-05-04T12:46:09.690Z,575
2017-05-04T12:46:50.226Z,585
2017-05-04T12:47:30.789Z,590
2017-05-04T12:48:11.261Z,590
2017-05-04T12:48:51.758Z,590
2017-05-04T12:49:32.313Z,585
2017-05-04T12:50:12.864Z,585
2017-05-04T12:50:53.353Z,590
2017-05-04T12:51:33.824Z,590
2017-05-04T12:52:19.049Z,590
2017-05-04T12:52:58.809Z,595
2017-05-04T12:53:39.278Z,600
2017-05-04T12:54:19.797Z,605
2017-05-04T12:55:00.294Z,610
2017-05-04T12:55:40.774Z,620
2017-05-04T12:56:21.264Z,635
2017-05-04T12:57:01.772Z,640
2017-05-04T12:57:42.287Z,635
2017-05-04T12:58:22.826Z,625
2017-05-04T12:59:03.338Z,615
2017-05-04T12:59:43.879Z,610
2017-05-04T13:00:24.473Z,595
2017-05-04T13:01:04.823Z,575
2017-05-04T13:01:47.037Z,560
2017-05-04T13:02:27.576Z,545
2017-05-04T13:03:08.029Z,530
2017-05-04T13:03:48.602Z,520
2017-05-04T13:04:29.947Z,505
2017-05-04T13:05:10.610Z,495
2017-05-04T13:05:51.148Z,490
2017-05-04T13:06:31.655Z,480
2017-05-04T13:07:12.187Z,475
2017-05-04T13:07:52.699Z,465
2017-05-04T13:08:33.252Z,460
2017-05-04T13:09:13.773Z,450
2017-05-04T13:09:54.282Z,445
2017-05-04T13:10:34.747Z,435
2017-05-04T13:11:15.286Z,435
2017-05-04T13:11:55.729Z,435
2017-05-04T13:12:36.410Z,435
2017-05-04T13:13:16.835Z,440
2017-05-04T13:13:57.325Z,445
2017-05-04T13:14:37.844Z,455
2017-05-04T13:15:18.308Z,470
2017-05-04T13:15:59.063Z,485
2017-05-04T13:16:41.020Z,510
2017-05-04T13:17:21.491Z,545
2017-05-04T13:18:02.092Z,590
2017-05-04T13:18:42.571Z,625
2017-05-04T13:19:23.100Z,665
2017-05-04T13:20:03.546Z,715
2017-05-04T13:20:44.199Z,775